Time;durP1;ratioP1;P1;durP2;ratioP2;P2;SDS_P1;SDS_P2;PMS_P1;PMS_P2;Temp;Humidity;BMP_temperature;BMP_pressure;BME280_temperature;BME280_humidity;BME280_pressure;Samples;Min_cycle;Max_cycle;Signal;HPM_P1;HPM_P2
2024/01/27 00:01:52;;;;;;;17.80;5.10;;;5.50;99.90;;;;;;5094891;28;20543;-76
2024/01/27 00:04:21;;;;;;;18.43;5.77;;;5.40;99.90;;;;;;5096291;28;20466;-76
2024/01/27 00:06:49;;;;;;;22.17;5.70;;;5.40;99.90;;;;;;5094887;28;20519;-76
2024/01/27 00:09:18;;;;;;;21.40;5.93;;;5.40;99.90;;;;;;5096285;28;20485;-76
2024/01/27 00:11:46;;;;;;;20.27;4.87;;;5.40;99.90;;;;;;5094847;28;20469;-75
2024/01/27 00:14:16;;;;;;;16.97;6.53;;;5.40;99.90;;;;;;5094861;28;20814;-76
2024/01/27 00:16:44;;;;;;;16.83;5.10;;;5.30;99.90;;;;;;5094726;28;20452;-76
2024/01/27 00:19:12;;;;;;;15.10;4.83;;;5.40;99.90;;;;;;5094769;28;20486;-76
2024/01/27 00:21:41;;;;;;;21.13;5.50;;;5.30;99.90;;;;;;5094549;28;20968;-76
2024/01/27 00:24:09;;;;;;;15.43;5.77;;;5.30;99.90;;;;;;5094938;28;20936;-76
2024/01/27 00:26:38;;;;;;;26.57;5.60;;;5.30;99.90;;;;;;5094499;28;20442;-76
2024/01/27 00:29:06;;;;;;;16.77;5.37;;;5.30;99.90;;;;;;5094416;28;20994;-76
2024/01/27 00:31:36;;;;;;;12.77;4.27;;;5.30;99.90;;;;;;5095761;28;20468;-76
2024/01/27 00:34:04;;;;;;;22.47;5.03;;;5.30;99.90;;;;;;5094186;28;20478;-76
2024/01/27 00:36:32;;;;;;;12.93;4.70;;;5.30;99.90;;;;;;5095676;28;20428;-76
2024/01/27 00:39:00;;;;;;;20.73;7.00;;;5.20;99.90;;;;;;5094195;28;20941;-76
2024/01/27 00:41:29;;;;;;;22.20;6.07;;;5.20;99.90;;;;;;5094208;28;20498;-76
2024/01/27 00:43:57;;;;;;;19.70;5.47;;;5.20;99.90;;;;;;5094474;28;20517;-76
2024/01/27 00:46:25;;;;;;;18.43;5.30;;;5.20;99.90;;;;;;5095253;28;20484;-76
2024/01/27 00:48:55;;;;;;;15.53;5.47;;;5.20;99.90;;;;;;5095589;28;20963;-76
2024/01/27 00:51:23;;;;;;;13.97;4.73;;;5.20;99.90;;;;;;5095412;28;20527;-76
2024/01/27 00:53:52;;;;;;;19.17;5.13;;;5.20;99.90;;;;;;5094178;28;20464;-76
2024/01/27 00:56:20;;;;;;;19.43;5.50;;;5.10;99.90;;;;;;5095979;28;20440;-76
2024/01/27 00:58:48;;;;;;;16.83;4.50;;;5.20;99.90;;;;;;5094255;28;20860;-76
2024/01/27 01:01:16;;;;;;;13.13;5.07;;;5.10;99.90;;;;;;5095784;28;20444;-76
2024/01/27 01:03:45;;;;;;;15.03;5.70;;;5.10;99.90;;;;;;5096373;28;20453;-76
2024/01/27 01:06:15;;;;;;;15.77;5.00;;;5.10;99.90;;;;;;5093872;28;20855;-76
2024/01/27 01:08:43;;;;;;;18.17;4.60;;;5.10;99.90;;;;;;5095276;28;20438;-76
2024/01/27 01:11:12;;;;;;;15.27;5.03;;;5.10;99.90;;;;;;5093760;28;20438;-76
2024/01/27 01:13:40;;;;;;;15.10;5.33;;;5.10;99.90;;;;;;5093640;28;20551;-76
2024/01/27 01:16:08;;;;;;;16.67;4.93;;;5.10;99.90;;;;;;5093677;28;20464;-76
2024/01/27 01:18:37;;;;;;;17.53;4.77;;;5.00;99.90;;;;;;5095591;28;21024;-76
2024/01/27 01:21:05;;;;;;;15.10;4.97;;;5.10;99.90;;;;;;5095584;28;20465;-76
2024/01/27 01:23:35;;;;;;;14.03;4.33;;;5.10;99.90;;;;;;5094807;28;20547;-76
2024/01/27 01:26:04;;;;;;;17.00;4.37;;;5.00;99.90;;;;;;5093856;28;20454;-76
2024/01/27 01:28:32;;;;;;;17.80;5.67;;;5.00;99.90;;;;;;5094661;28;20438;-76
2024/01/27 01:31:01;;;;;;;15.80;5.20;;;5.00;99.90;;;;;;5093490;28;20447;-76
2024/01/27 01:33:29;;;;;;;13.30;4.60;;;5.00;99.90;;;;;;5093129;28;20495;-76
2024/01/27 01:35:56;;;;;;;14.67;4.43;;;5.00;99.90;;;;;;5094430;28;20810;-76
2024/01/27 01:38:25;;;;;;;17.07;4.63;;;4.90;99.90;;;;;;5093180;28;20937;-76
2024/01/27 01:40:54;;;;;;;14.60;4.47;;;5.00;99.90;;;;;;5094465;28;20440;-76
2024/01/27 01:43:22;;;;;;;19.37;6.10;;;4.90;99.90;;;;;;5092981;28;21057;-76
2024/01/27 01:45:53;;;;;;;15.10;4.80;;;4.90;99.90;;;;;;5093005;28;20505;-77
2024/01/27 01:48:21;;;;;;;20.20;5.03;;;4.90;99.90;;;;;;5093045;28;20949;-76
2024/01/27 01:50:51;;;;;;;13.93;4.27;;;4.90;99.90;;;;;;5093145;28;20525;-76
2024/01/27 01:53:20;;;;;;;15.23;4.70;;;4.90;99.90;;;;;;5093044;28;21012;-76
2024/01/27 01:55:49;;;;;;;15.93;4.43;;;4.80;99.90;;;;;;5094229;28;20469;-76
2024/01/27 01:58:19;;;;;;;16.47;5.10;;;4.80;99.90;;;;;;5094354;28;20476;-76
2024/01/27 02:00:48;;;;;;;15.27;5.60;;;4.80;99.90;;;;;;5093794;28;20447;-76
2024/01/27 02:03:16;;;;;;;17.37;4.80;;;4.80;99.90;;;;;;5092703;28;20467;-76
2024/01/27 02:05:44;;;;;;;10.83;4.17;;;4.80;99.90;;;;;;5094049;28;20463;-76
2024/01/27 02:08:13;;;;;;;21.87;6.73;;;4.80;99.90;;;;;;5094039;28;20801;-76
2024/01/27 02:10:41;;;;;;;19.00;4.93;;;4.80;99.90;;;;;;5093931;28;20862;-76
2024/01/27 02:13:19;;;;;;;20.10;5.83;;;4.70;99.90;;;;;;5092561;28;20475;-76
2024/01/27 02:15:49;;;;;;;19.60;5.73;;;4.70;99.90;;;;;;5092540;28;20468;-76
2024/01/27 02:18:17;;;;;;;20.40;5.03;;;4.70;99.90;;;;;;5092623;28;20447;-76
2024/01/27 02:20:46;;;;;;;15.53;5.30;;;4.70;99.90;;;;;;5092518;28;20456;-76
2024/01/27 02:23:14;;;;;;;13.00;4.77;;;4.70;99.90;;;;;;5093708;28;20824;-76
2024/01/27 02:25:44;;;;;;;24.00;6.97;;;4.60;99.90;;;;;;5092504;28;20464;-76
2024/01/27 02:28:13;;;;;;;18.47;5.40;;;4.70;99.90;;;;;;5092409;28;20448;-76
2024/01/27 02:30:41;;;;;;;14.43;4.50;;;4.70;99.90;;;;;;5092932;28;20476;-76
2024/01/27 02:33:09;;;;;;;18.77;4.90;;;4.60;99.90;;;;;;5093492;28;20882;-75
2024/01/27 02:35:38;;;;;;;16.80;5.20;;;4.60;99.90;;;;;;5092215;28;20472;-76
2024/01/27 02:38:06;;;;;;;18.03;5.47;;;4.70;99.90;;;;;;5093849;28;20460;-76
2024/01/27 02:40:34;;;;;;;15.20;5.33;;;4.60;99.90;;;;;;5092234;28;20480;-76
2024/01/27 02:43:04;;;;;;;19.03;4.90;;;4.60;99.90;;;;;;5093465;28;20968;-76
2024/01/27 02:45:32;;;;;;;16.00;6.20;;;4.60;99.90;;;;;;5092163;28;20445;-76
2024/01/27 02:48:00;;;;;;;16.80;4.77;;;4.60;99.90;;;;;;5093365;28;20815;-76
2024/01/27 02:50:29;;;;;;;18.53;5.67;;;4.60;99.90;;;;;;5092148;28;20452;-76
2024/01/27 02:52:57;;;;;;;18.10;5.33;;;4.60;99.90;;;;;;5093421;28;20455;-76
2024/01/27 02:55:25;;;;;;;13.47;4.47;;;4.60;99.90;;;;;;5093851;28;20485;-76
2024/01/27 02:57:53;;;;;;;20.83;4.90;;;4.60;99.90;;;;;;5092129;28;20493;-76
2024/01/27 03:00:23;;;;;;;18.73;5.23;;;4.60;99.90;;;;;;5091995;28;20859;-76
2024/01/27 03:02:51;;;;;;;25.10;6.10;;;4.60;99.90;;;;;;5090835;28;20447;-76
2024/01/27 03:05:20;;;;;;;17.67;5.40;;;4.70;99.90;;;;;;5091954;28;20195;-76
2024/01/27 03:07:48;;;;;;;22.10;6.27;;;4.70;99.90;;;;;;5091997;28;20645;-76
2024/01/27 03:10:16;;;;;;;14.73;4.37;;;4.70;99.90;;;;;;5091947;28;20482;-76
2024/01/27 03:12:44;;;;;;;18.80;5.80;;;4.70;99.90;;;;;;5095081;28;20510;-76
2024/01/27 03:15:12;;;;;;;19.73;5.00;;;4.60;99.90;;;;;;5097169;28;20494;-76
2024/01/27 03:17:42;;;;;;;16.10;4.97;;;4.60;99.90;;;;;;5097402;28;20436;-76
2024/01/27 03:20:11;;;;;;;14.77;5.50;;;4.60;99.90;;;;;;5095835;28;20450;-76
2024/01/27 03:22:41;;;;;;;10.90;4.30;;;4.60;99.90;;;;;;5097001;28;20820;-76
2024/01/27 03:25:11;;;;;;;17.20;5.90;;;4.60;99.90;;;;;;5095747;28;20537;-76
2024/01/27 03:27:39;;;;;;;18.17;5.90;;;4.50;99.90;;;;;;5095822;28;20436;-75
2024/01/27 03:30:09;;;;;;;13.03;4.43;;;4.50;99.90;;;;;;5096950;28;20440;-76
2024/01/27 03:32:38;;;;;;;15.73;4.20;;;4.50;99.90;;;;;;5097570;28;20562;-76
2024/01/27 03:35:08;;;;;;;18.43;5.10;;;4.50;99.90;;;;;;5101303;28;20452;-76
2024/01/27 03:37:36;;;;;;;16.03;4.83;;;4.50;99.90;;;;;;5096658;28;20480;-76
2024/01/27 03:40:06;;;;;;;19.53;5.60;;;4.50;99.90;;;;;;5095502;28;21048;-77
2024/01/27 03:42:34;;;;;;;19.40;5.60;;;4.50;99.90;;;;;;5095389;28;20509;-76
2024/01/27 03:45:03;;;;;;;13.70;5.60;;;4.40;99.90;;;;;;5096800;28;20825;-76
2024/01/27 03:47:31;;;;;;;21.07;5.47;;;4.40;99.90;;;;;;5095331;28;20448;-77
2024/01/27 03:49:59;;;;;;;17.50;4.97;;;4.40;99.90;;;;;;5096728;28;20436;-76
2024/01/27 03:52:29;;;;;;;13.77;4.60;;;4.40;99.90;;;;;;5095296;28;20455;-75
2024/01/27 03:54:57;;;;;;;17.53;4.63;;;4.40;99.90;;;;;;5096509;28;20436;-76
2024/01/27 03:57:25;;;;;;;14.07;4.83;;;4.40;99.90;;;;;;5095162;28;20510;-76
2024/01/27 03:59:54;;;;;;;15.53;5.00;;;4.30;99.90;;;;;;5096428;28;20447;-76
2024/01/27 04:02:22;;;;;;;17.30;5.17;;;4.30;99.90;;;;;;5096345;28;20486;-75
2024/01/27 04:04:50;;;;;;;20.00;5.00;;;4.30;99.90;;;;;;5095285;28;20528;-76
2024/01/27 04:07:18;;;;;;;18.73;5.93;;;4.30;99.90;;;;;;5094990;28;20452;-76
2024/01/27 04:09:48;;;;;;;11.67;4.67;;;4.30;99.90;;;;;;5095032;28;20819;-76
2024/01/27 04:12:17;;;;;;;13.00;4.17;;;4.30;99.90;;;;;;5094924;28;20483;-76
2024/01/27 04:14:45;;;;;;;13.50;4.97;;;4.30;99.90;;;;;;5096234;28;20482;-76
2024/01/27 04:17:13;;;;;;;16.40;5.90;;;4.30;99.90;;;;;;5096047;28;20994;-76
2024/01/27 04:19:41;;;;;;;19.47;4.87;;;4.20;99.90;;;;;;5094757;28;20441;-76
2024/01/27 04:22:10;;;;;;;18.20;5.07;;;4.20;99.90;;;;;;5095547;28;20480;-76
2024/01/27 04:24:38;;;;;;;16.93;4.70;;;4.20;99.90;;;;;;5094650;28;20994;-76
2024/01/27 04:27:08;;;;;;;15.90;4.70;;;4.20;99.90;;;;;;5095834;28;20436;-76
2024/01/27 04:29:37;;;;;;;16.57;4.90;;;4.20;99.90;;;;;;5094718;28;20437;-76
2024/01/27 04:32:06;;;;;;;13.13;4.77;;;4.20;99.90;;;;;;5095979;28;20489;-76
2024/01/27 04:34:34;;;;;;;18.57;4.43;;;4.20;99.90;;;;;;5094620;28;20531;-76
2024/01/27 04:37:02;;;;;;;15.10;4.43;;;4.20;99.90;;;;;;5094372;28;20463;-76
2024/01/27 04:39:30;;;;;;;14.73;4.43;;;4.20;99.90;;;;;;5094413;28;20483;-77
2024/01/27 04:41:59;;;;;;;13.50;4.63;;;4.20;99.90;;;;;;5094620;28;20452;-76
2024/01/27 04:44:28;;;;;;;19.70;4.17;;;4.20;99.90;;;;;;5094311;28;20493;-76
2024/01/27 04:46:56;;;;;;;12.23;4.60;;;4.20;99.90;;;;;;5094088;28;20547;-76
2024/01/27 04:49:25;;;;;;;20.73;4.93;;;4.10;99.90;;;;;;5095809;28;20484;-76
2024/01/27 04:51:53;;;;;;;13.87;5.10;;;4.20;99.90;;;;;;5095636;28;20436;-77
2024/01/27 04:54:21;;;;;;;16.90;4.33;;;4.20;99.90;;;;;;5094128;28;20485;-76
2024/01/27 04:56:49;;;;;;;13.73;5.03;;;4.20;99.90;;;;;;5095608;28;20571;-76
2024/01/27 04:59:18;;;;;;;15.80;4.60;;;4.20;99.90;;;;;;5094051;28;20436;-76
2024/01/27 05:01:47;;;;;;;16.03;5.10;;;4.20;99.90;;;;;;5093925;28;20444;-76
2024/01/27 05:04:15;;;;;;;17.00;5.00;;;4.10;99.90;;;;;;5095140;28;20432;-76
2024/01/27 05:06:45;;;;;;;14.93;4.70;;;4.10;99.90;;;;;;5095157;28;20956;-76
2024/01/27 05:09:14;;;;;;;17.83;5.07;;;4.10;99.90;;;;;;5093803;28;20436;-76
2024/01/27 05:11:42;;;;;;;12.17;4.27;;;4.10;99.90;;;;;;5093678;28;20454;-76
2024/01/27 05:14:10;;;;;;;18.30;5.40;;;4.10;99.90;;;;;;5094953;28;20558;-76
2024/01/27 05:16:39;;;;;;;13.80;4.07;;;4.10;99.90;;;;;;5093556;28;20555;-77
2024/01/27 05:19:08;;;;;;;14.03;4.80;;;4.10;99.90;;;;;;5093648;28;20550;-76
2024/01/27 05:21:37;;;;;;;13.27;4.53;;;4.10;99.90;;;;;;5093589;28;20452;-76
2024/01/27 05:24:06;;;;;;;14.90;4.03;;;4.10;99.90;;;;;;5093396;28;20978;-76
2024/01/27 05:26:34;;;;;;;16.70;4.20;;;4.00;99.90;;;;;;5093482;28;20785;-76
2024/01/27 05:29:02;;;;;;;15.20;5.00;;;4.10;99.90;;;;;;5093395;28;20448;-76
2024/01/27 05:31:31;;;;;;;10.93;4.97;;;4.00;99.90;;;;;;5093373;28;20474;-76
2024/01/27 05:33:59;;;;;;;13.33;4.87;;;4.00;99.90;;;;;;5092478;28;20471;-76
2024/01/27 05:36:29;;;;;;;16.93;3.90;;;4.00;99.90;;;;;;5093124;28;20450;-76
2024/01/27 05:38:57;;;;;;;14.73;5.00;;;4.00;99.90;;;;;;5093332;28;20452;-76
2024/01/27 05:41:28;;;;;;;17.13;4.17;;;4.00;99.90;;;;;;5093184;28;20447;-76
2024/01/27 05:43:57;;;;;;;14.07;4.87;;;3.90;99.90;;;;;;5093228;28;20475;-76
2024/01/27 05:46:26;;;;;;;17.20;5.20;;;3.90;99.90;;;;;;5094216;28;20875;-76
2024/01/27 05:48:57;;;;;;;20.30;4.40;;;3.90;99.90;;;;;;5093968;28;20440;-76
2024/01/27 05:51:26;;;;;;;13.77;4.33;;;3.90;99.90;;;;;;5102253;28;20816;-75
2024/01/27 05:53:55;;;;;;;14.63;5.30;;;3.90;99.90;;;;;;5094460;28;20543;-76
2024/01/27 05:56:24;;;;;;;21.33;6.30;;;3.90;99.90;;;;;;5092993;28;20492;-76
2024/01/27 05:58:53;;;;;;;14.23;5.07;;;3.90;99.90;;;;;;5092908;28;20445;-76
2024/01/27 06:01:21;;;;;;;11.03;4.87;;;3.90;99.90;;;;;;5093154;28;20918;-76
2024/01/27 06:03:49;;;;;;;13.13;5.23;;;3.80;99.90;;;;;;5094118;28;20479;-76
2024/01/27 06:06:18;;;;;;;16.70;3.80;;;3.80;99.90;;;;;;5092834;28;20959;-76
2024/01/27 06:08:46;;;;;;;11.57;4.73;;;3.80;99.90;;;;;;5092733;28;20531;-77
2024/01/27 06:11:23;;;;;;;16.30;5.37;;;3.80;99.90;;;;;;5094011;28;20494;-76
2024/01/27 06:13:52;;;;;;;15.40;5.40;;;3.80;99.90;;;;;;5093848;28;20459;-76
2024/01/27 06:16:20;;;;;;;12.13;4.53;;;3.80;99.90;;;;;;5093895;28;20485;-75
2024/01/27 06:18:48;;;;;;;18.03;4.43;;;3.80;99.90;;;;;;5092549;28;20464;-75
2024/01/27 06:21:16;;;;;;;14.17;5.70;;;3.80;99.90;;;;;;5092640;28;20440;-76
2024/01/27 06:23:45;;;;;;;16.90;5.07;;;3.70;99.90;;;;;;5092413;28;20522;-75
2024/01/27 06:26:15;;;;;;;12.23;4.40;;;3.70;99.90;;;;;;5093724;28;20432;-76
2024/01/27 06:28:44;;;;;;;11.97;4.70;;;3.70;99.90;;;;;;5092489;28;20548;-75
2024/01/27 06:31:12;;;;;;;14.97;4.40;;;3.70;99.90;;;;;;5093647;28;20945;-76
2024/01/27 06:33:40;;;;;;;14.03;4.70;;;3.70;99.90;;;;;;5092287;28;20890;-76
2024/01/27 06:36:09;;;;;;;10.77;4.23;;;3.70;99.90;;;;;;5094213;28;20926;-76
2024/01/27 06:38:38;;;;;;;19.10;4.70;;;3.70;99.90;;;;;;5092206;28;20558;-75
2024/01/27 06:41:06;;;;;;;14.10;4.63;;;3.70;99.90;;;;;;5093718;28;20436;-75
2024/01/27 06:43:36;;;;;;;16.27;4.77;;;3.70;99.90;;;;;;5093368;28;21038;-76
2024/01/27 06:46:05;;;;;;;16.97;5.93;;;3.70;99.90;;;;;;5091870;28;20445;-76
2024/01/27 06:48:33;;;;;;;18.80;5.87;;;3.60;99.90;;;;;;5092217;28;20460;-76
2024/01/27 06:51:01;;;;;;;19.70;5.83;;;3.60;99.90;;;;;;5092049;28;20440;-76
2024/01/27 06:53:30;;;;;;;11.30;5.40;;;3.60;99.90;;;;;;5092266;28;20521;-76
2024/01/27 06:55:58;;;;;;;17.40;5.80;;;3.60;99.90;;;;;;5092088;28;20432;-76
2024/01/27 06:58:26;;;;;;;16.37;4.57;;;3.60;99.90;;;;;;5091923;28;20506;-76
2024/01/27 07:00:56;;;;;;;15.90;5.23;;;3.60;99.90;;;;;;5093566;28;20428;-76
2024/01/27 07:03:24;;;;;;;11.60;4.87;;;3.60;99.90;;;;;;5091947;28;20465;-76
2024/01/27 07:05:53;;;;;;;12.83;5.70;;;3.60;99.90;;;;;;5093274;28;20535;-76
2024/01/27 07:08:22;;;;;;;13.03;6.10;;;3.50;99.90;;;;;;5091925;28;20453;-76
2024/01/27 07:10:50;;;;;;;15.70;5.30;;;3.60;99.90;;;;;;5093183;28;20517;-76
2024/01/27 07:13:18;;;;;;;15.50;5.63;;;3.60;99.90;;;;;;5093059;28;20859;-76
2024/01/27 07:15:46;;;;;;;16.23;5.33;;;3.50;99.90;;;;;;5093140;28;20844;-76
2024/01/27 07:18:17;;;;;;;16.17;5.90;;;3.50;99.90;;;;;;5091646;28;20504;-76
2024/01/27 07:20:46;;;;;;;14.47;5.80;;;3.50;99.90;;;;;;5093409;28;20416;-76
2024/01/27 07:23:14;;;;;;;12.63;5.77;;;3.50;99.90;;;;;;5093024;28;20480;-76
2024/01/27 07:25:42;;;;;;;19.03;5.53;;;3.50;99.90;;;;;;5091801;28;20895;-76
2024/01/27 07:28:10;;;;;;;11.93;5.53;;;3.50;99.90;;;;;;5091835;28;20444;-76
2024/01/27 07:30:38;;;;;;;14.80;5.20;;;3.50;99.90;;;;;;5091828;28;20476;-76
2024/01/27 07:33:07;;;;;;;13.43;4.17;;;3.50;99.90;;;;;;5091785;28;20498;-76
2024/01/27 07:35:36;;;;;;;10.30;4.83;;;3.50;99.90;;;;;;5091790;28;20472;-75
2024/01/27 07:38:05;;;;;;;13.77;5.00;;;3.50;99.90;;;;;;5091687;28;20841;-78
2024/01/27 07:40:33;;;;;;;15.43;5.43;;;3.50;99.90;;;;;;5093301;28;20471;-76
2024/01/27 07:43:02;;;;;;;12.77;5.53;;;3.40;99.90;;;;;;5091728;28;20853;-75
2024/01/27 07:45:30;;;;;;;12.67;5.70;;;3.50;99.90;;;;;;5091967;28;20443;-77
2024/01/27 07:48:00;;;;;;;14.40;6.47;;;3.50;99.90;;;;;;5091765;28;20452;-75
2024/01/27 07:50:29;;;;;;;14.20;5.77;;;3.50;99.90;;;;;;5092961;28;20451;-77
2024/01/27 07:52:59;;;;;;;21.20;6.73;;;3.50;99.90;;;;;;5091570;28;20483;-76
2024/01/27 07:55:27;;;;;;;16.20;6.20;;;3.50;99.90;;;;;;5091716;28;20448;-76
2024/01/27 07:57:55;;;;;;;17.00;6.40;;;3.50;99.90;;;;;;5093240;28;20559;-77
2024/01/27 08:00:23;;;;;;;18.43;7.20;;;3.50;99.90;;;;;;5097081;28;20428;-76
2024/01/27 08:02:51;;;;;;;14.90;6.47;;;3.50;99.90;;;;;;5095507;28;20564;-75
2024/01/27 08:05:20;;;;;;;13.60;6.00;;;3.50;99.90;;;;;;5097394;28;20522;-77
2024/01/27 08:07:49;;;;;;;17.37;6.57;;;3.50;99.90;;;;;;5096999;28;20454;-76
2024/01/27 08:10:19;;;;;;;15.43;6.70;;;3.50;99.90;;;;;;5095737;28;20859;-76
2024/01/27 08:12:47;;;;;;;9.50;4.87;;;3.60;99.90;;;;;;5095079;28;20472;-76
2024/01/27 08:15:16;;;;;;;12.23;4.70;;;3.60;99.90;;;;;;5095330;28;20448;-79
2024/01/27 08:17:44;;;;;;;13.13;5.17;;;3.60;99.90;;;;;;5096023;28;20448;-78
2024/01/27 08:20:13;;;;;;;17.27;5.60;;;3.60;99.90;;;;;;5097155;28;20818;-78
2024/01/27 08:22:41;;;;;;;17.40;6.33;;;3.60;99.90;;;;;;5098328;28;20540;-78
2024/01/27 08:25:10;;;;;;;11.70;5.33;;;3.60;99.90;;;;;;5097733;28;20961;-78
2024/01/27 08:27:39;;;;;;;15.60;5.50;;;3.70;99.90;;;;;;5097602;28;20952;-77
2024/01/27 08:30:09;;;;;;;14.33;5.37;;;3.70;99.90;;;;;;5097992;28;20467;-77
2024/01/27 08:32:38;;;;;;;19.23;5.40;;;3.70;99.90;;;;;;5096029;28;20985;-78
2024/01/27 08:35:07;;;;;;;23.77;6.03;;;3.80;99.90;;;;;;5095279;28;20506;-77
2024/01/27 08:37:38;;;;;;;22.53;6.83;;;3.70;99.90;;;;;;5096580;28;20840;-77
2024/01/27 08:40:08;;;;;;;12.70;6.50;;;3.80;99.90;;;;;;5096553;28;20508;-77
2024/01/27 08:42:36;;;;;;;12.00;6.30;;;3.80;99.90;;;;;;5094729;28;20468;-77
2024/01/27 08:45:07;;;;;;;12.47;5.60;;;3.80;99.90;;;;;;5097311;28;20448;-77
2024/01/27 08:47:36;;;;;;;22.80;7.50;;;3.80;99.90;;;;;;5094761;28;20452;-76
2024/01/27 08:50:07;;;;;;;12.90;5.63;;;3.90;99.90;;;;;;5095434;28;20434;-75
2024/01/27 08:52:35;;;;;;;15.03;6.13;;;3.90;99.90;;;;;;5094242;28;20476;-77
2024/01/27 08:55:07;;;;;;;16.87;6.17;;;4.00;99.90;;;;;;5094661;28;20534;-76
2024/01/27 08:57:35;;;;;;;16.77;7.03;;;4.00;99.90;;;;;;5093999;28;20444;-76
2024/01/27 09:00:04;;;;;;;12.17;5.40;;;4.00;99.90;;;;;;5094629;28;20472;-78
2024/01/27 09:02:34;;;;;;;16.23;6.50;;;4.10;99.90;;;;;;5096839;28;20542;-76
2024/01/27 09:05:02;;;;;;;16.63;6.37;;;4.10;99.90;;;;;;5093919;28;20447;-77
2024/01/27 09:07:30;;;;;;;12.00;6.60;;;4.10;99.90;;;;;;5093969;28;20527;-77
2024/01/27 09:09:59;;;;;;;12.30;6.80;;;4.10;99.90;;;;;;5093943;28;20436;-76
2024/01/27 09:12:27;;;;;;;16.40;6.83;;;4.20;99.90;;;;;;5094032;28;21056;-78
2024/01/27 09:14:56;;;;;;;17.17;7.23;;;4.20;99.90;;;;;;5094182;28;20979;-77
2024/01/27 09:17:24;;;;;;;12.20;6.80;;;4.30;99.90;;;;;;5095426;28;20443;-76
2024/01/27 09:19:54;;;;;;;14.50;7.37;;;4.30;99.90;;;;;;5094812;28;20468;-75
2024/01/27 09:22:22;;;;;;;16.20;6.97;;;4.30;99.90;;;;;;5093504;28;21056;-76
2024/01/27 09:24:51;;;;;;;17.03;7.13;;;4.40;99.90;;;;;;5093534;28;20484;-75
2024/01/27 09:27:20;;;;;;;15.13;8.23;;;4.40;99.90;;;;;;5093429;28;21040;-75
2024/01/27 09:29:48;;;;;;;16.80;8.23;;;4.40;99.90;;;;;;5095563;28;20472;-77
2024/01/27 09:32:16;;;;;;;20.27;8.83;;;4.50;99.90;;;;;;5094361;28;21045;-77
2024/01/27 09:34:45;;;;;;;15.40;6.93;;;4.50;99.90;;;;;;5095645;28;20940;-77
2024/01/27 09:37:15;;;;;;;16.10;8.27;;;4.60;99.90;;;;;;5094354;28;20453;-77
2024/01/27 09:39:43;;;;;;;19.30;8.17;;;4.60;99.90;;;;;;5094748;28;20467;-76
2024/01/27 09:42:15;;;;;;;15.87;8.20;;;4.70;99.90;;;;;;5094555;28;20460;-77
2024/01/27 09:44:45;;;;;;;17.73;9.10;;;4.70;99.90;;;;;;5095102;28;20865;-77
2024/01/27 09:47:14;;;;;;;18.30;8.90;;;4.70;99.90;;;;;;5093645;28;20468;-77
2024/01/27 09:49:43;;;;;;;19.30;9.73;;;4.80;99.90;;;;;;5093521;28;20444;-77
2024/01/27 09:52:14;;;;;;;15.40;8.43;;;4.80;99.90;;;;;;5093735;28;20891;-78
2024/01/27 09:54:42;;;;;;;17.03;8.60;;;4.90;99.90;;;;;;5094443;28;20463;-77
2024/01/27 09:57:11;;;;;;;18.00;10.80;;;4.90;99.90;;;;;;5093812;28;20458;-77
2024/01/27 09:59:44;;;;;;;19.53;9.67;;;4.90;99.90;;;;;;5093398;28;20467;-77
2024/01/27 10:02:15;;;;;;;17.80;9.70;;;5.00;99.90;;;;;;5093017;28;20468;-77
2024/01/27 10:04:44;;;;;;;18.23;9.87;;;5.00;99.90;;;;;;5095193;28;20474;-77
2024/01/27 10:07:15;;;;;;;20.90;10.07;;;5.10;99.90;;;;;;5095804;28;20570;-77
2024/01/27 10:09:43;;;;;;;18.07;9.63;;;5.10;99.90;;;;;;5093530;28;20941;-78
2024/01/27 10:12:15;;;;;;;19.57;9.67;;;5.20;99.90;;;;;;5093140;28;20470;-77
2024/01/27 10:14:46;;;;;;;17.40;10.57;;;5.20;99.90;;;;;;5093730;28;20490;-77
2024/01/27 10:17:21;;;;;;;16.63;10.37;;;5.30;99.90;;;;;;5094095;28;20436;-77
2024/01/27 10:20:00;;;;;;;16.37;10.63;;;5.30;99.90;;;;;;5092918;28;20527;-77
2024/01/27 10:22:30;;;;;;;18.63;10.50;;;5.30;99.90;;;;;;5095802;28;20968;-77
2024/01/27 10:25:03;;;;;;;20.33;13.63;;;5.40;99.90;;;;;;5095280;28;20447;-78
2024/01/27 10:27:31;;;;;;;19.20;10.97;;;5.40;99.90;;;;;;5095059;28;20421;-77
2024/01/27 10:30:00;;;;;;;19.48;11.82;;;5.50;99.90;;;;;;5092217;28;20433;-78
2024/01/27 10:32:28;;;;;;;19.93;11.80;;;5.50;99.90;;;;;;5092459;28;20659;-77
2024/01/27 10:35:08;;;;;;;18.33;12.37;;;5.60;99.90;;;;;;5093230;28;20504;-76
2024/01/27 10:37:39;;;;;;;20.20;12.50;;;5.60;99.90;;;;;;5092932;28;20501;-77
2024/01/27 10:40:09;;;;;;;19.83;10.67;;;5.60;99.90;;;;;;5092807;28;20462;-77
2024/01/27 10:42:38;;;;;;;18.17;10.63;;;5.70;99.90;;;;;;5092898;28;21004;-77
2024/01/27 10:45:07;;;;;;;24.17;13.30;;;5.70;99.90;;;;;;5092763;28;20461;-77
2024/01/27 10:47:36;;;;;;;14.70;11.27;;;5.70;99.90;;;;;;5092722;28;20594;-77
2024/01/27 10:50:09;;;;;;;17.37;10.87;;;5.80;99.90;;;;;;5092777;28;20466;-77
2024/01/27 10:52:41;;;;;;;19.00;10.40;;;5.80;99.90;;;;;;5094198;28;20456;-77
2024/01/27 10:55:11;;;;;;;15.80;11.10;;;5.90;99.90;;;;;;5092888;28;20445;-77
2024/01/27 10:57:41;;;;;;;22.07;11.97;;;5.90;99.90;;;;;;5093722;28;20523;-78
2024/01/27 11:00:11;;;;;;;22.10;10.77;;;5.90;99.90;;;;;;5095137;28;20460;-77
2024/01/27 11:02:42;;;;;;;15.23;10.93;;;6.00;99.90;;;;;;5094089;28;20495;-78
2024/01/27 11:05:11;;;;;;;14.27;10.17;;;6.00;99.90;;;;;;5095065;28;20440;-78
2024/01/27 11:07:43;;;;;;;18.50;11.83;;;6.10;99.90;;;;;;5093277;28;20456;-76
2024/01/27 11:10:11;;;;;;;17.10;11.40;;;6.10;99.90;;;;;;5093297;28;20443;-78
2024/01/27 11:12:40;;;;;;;16.10;10.07;;;6.20;99.90;;;;;;5092230;28;21068;-77
2024/01/27 11:15:09;;;;;;;14.57;11.53;;;6.30;99.90;;;;;;5093320;28;20454;-77
2024/01/27 11:17:41;;;;;;;15.07;10.47;;;6.30;99.90;;;;;;5093442;28;20480;-76
2024/01/27 11:20:11;;;;;;;23.40;12.10;;;6.40;99.90;;;;;;5091791;28;20838;-76
2024/01/27 11:22:43;;;;;;;18.07;11.37;;;6.40;99.90;;;;;;5093244;28;20451;-76
2024/01/27 11:25:17;;;;;;;15.33;9.93;;;6.40;99.90;;;;;;5092161;28;20459;-75
2024/01/27 11:27:47;;;;;;;18.83;10.57;;;6.50;99.90;;;;;;5092627;28;20433;-78
2024/01/27 11:30:29;;;;;;;15.70;9.30;;;6.50;99.90;;;;;;5094706;28;20443;-78
2024/01/27 11:32:58;;;;;;;18.00;11.27;;;6.60;99.90;;;;;;5096368;28;20549;-78
2024/01/27 11:35:27;;;;;;;18.07;9.60;;;6.60;99.90;;;;;;5099172;28;20803;-78
2024/01/27 11:37:56;;;;;;;15.23;9.30;;;6.60;99.90;;;;;;5097130;28;20493;-77
2024/01/27 11:40:25;;;;;;;21.03;10.30;;;6.70;99.90;;;;;;5095784;28;20470;-77
2024/01/27 11:42:57;;;;;;;15.10;9.00;;;6.70;99.90;;;;;;5095801;28;20466;-77
2024/01/27 11:45:25;;;;;;;19.17;9.80;;;6.80;99.90;;;;;;5095910;28;20851;-77
2024/01/27 11:47:53;;;;;;;16.90;9.10;;;6.80;99.90;;;;;;5095606;28;20451;-77
2024/01/27 11:50:21;;;;;;;16.90;9.03;;;6.90;99.90;;;;;;5096048;28;20447;-76
2024/01/27 11:52:50;;;;;;;21.83;9.93;;;6.90;99.90;;;;;;5097253;28;20457;-77
2024/01/27 11:55:20;;;;;;;16.87;9.70;;;7.00;99.90;;;;;;5096893;28;20442;-77
2024/01/27 11:57:48;;;;;;;15.33;8.20;;;7.00;99.90;;;;;;5095808;28;20533;-77
2024/01/27 12:00:17;;;;;;;14.37;9.10;;;7.00;99.90;;;;;;5095509;28;20466;-77
2024/01/27 12:02:45;;;;;;;14.00;8.90;;;7.10;99.90;;;;;;5095404;28;20459;-77
2024/01/27 12:05:15;;;;;;;17.97;9.10;;;7.10;99.90;;;;;;5096717;28;20489;-77
2024/01/27 12:07:43;;;;;;;15.73;8.30;;;7.20;99.90;;;;;;5095307;28;20497;-77
2024/01/27 12:10:11;;;;;;;17.47;7.70;;;7.20;99.90;;;;;;5095333;28;20558;-77
2024/01/27 12:12:41;;;;;;;16.30;7.47;;;7.30;99.90;;;;;;5096351;28;20554;-77
2024/01/27 12:15:09;;;;;;;17.03;9.33;;;7.30;99.90;;;;;;5095390;28;20518;-77
2024/01/27 12:17:38;;;;;;;16.33;7.47;;;7.30;99.90;;;;;;5095139;28;20815;-77
2024/01/27 12:20:16;;;;;;;11.50;7.10;;;7.40;99.90;;;;;;5096478;28;20925;-78
2024/01/27 12:22:44;;;;;;;12.53;7.93;;;7.40;99.90;;;;;;5097328;28;20485;-76
2024/01/27 12:25:14;;;;;;;12.87;7.10;;;7.50;99.90;;;;;;5096482;28;20469;-77
2024/01/27 12:27:45;;;;;;;12.87;8.07;;;7.50;99.90;;;;;;5096371;28;20439;-77
2024/01/27 12:30:14;;;;;;;14.50;7.80;;;7.50;99.90;;;;;;5094997;28;20980;-77
2024/01/27 12:32:43;;;;;;;12.93;6.70;;;7.50;99.90;;;;;;5094876;28;20467;-77
2024/01/27 12:35:13;;;;;;;16.43;8.63;;;7.60;99.90;;;;;;5095113;28;20983;-78
2024/01/27 12:37:41;;;;;;;13.93;7.83;;;7.60;99.90;;;;;;5095134;28;21029;-77
2024/01/27 12:40:19;;;;;;;13.73;8.27;;;7.60;99.90;;;;;;5095514;28;20455;-77
2024/01/27 12:42:52;;;;;;;17.23;7.60;;;7.60;99.90;;;;;;5094627;28;20831;-77
2024/01/27 12:45:21;;;;;;;14.10;7.83;;;7.60;99.90;;;;;;5094666;28;20470;-77
2024/01/27 12:47:49;;;;;;;15.03;7.47;;;7.70;99.90;;;;;;5096137;28;20451;-77
2024/01/27 12:50:18;;;;;;;13.17;8.00;;;7.70;99.90;;;;;;5094860;28;20986;-77
2024/01/27 12:52:47;;;;;;;18.67;8.70;;;7.70;99.90;;;;;;5094696;28;20981;-77
2024/01/27 12:55:15;;;;;;;13.27;7.23;;;7.80;99.90;;;;;;5095792;28;20444;-76